Olympia, WA

9:02 AM PDT on August 29, 2014 (GMT -0700)
East Olympia | Change Station
CLOSE
Current Station
Personal Weather Station
Location: Olympia, WA
Elevation: 164 ft
Nearby Weather Stations

Elev 164 ft 46.99 °N, 122.87 °W | Updated 5 minutes ago

Mostly Cloudy
Mostly Cloudy
61.5 °F
Feels Like 61.5 °F
N
0.0
Wind Variable Wind from NW
Gusts 1.0 mph

Today
High -- | Low -- °F
--% Chance of Precip.
Yesterday
High -- | Low -- °F
Precip. -- in
6:27 AM 7:56 PM
Waxing Crescent, 15% visible
Pressure 29.99 in
Visibility 10.0 miles
Clouds Mostly Cloudy 5000 ft
Dew Point 56 °F
Humidity 83%
Rainfall 0.00 in
Snow Depth Not available.
UV 0.0 out of 12
Pollen 2.90 out of 12
PM2.5 Good
Flu Activity Not available.
SPECI KOLM 291556Z 20007KT 10SM BKN050 17/11 A2999 RMK AO2 T01720111

More Conditions Fewer Conditions

Pressure 29.99 in
Visibility 10.0 miles
Clouds Mostly Cloudy 5000 ft
Dew Point 56 °F
Humidity 83%
Rainfall 0.00 in
Snow Depth Not available.
UV 0.0 out of 12
Pollen 2.90 out of 12
PM2.5 Good
Flu Activity Not available.
SPECI KOLM 291556Z 20007KT 10SM BKN050 17/11 A2999 RMK AO2 T01720111

More Conditions Fewer Conditions

Nowcast | as of 8:20 am PDT on August 29, 2014

An incoming weak Pacific frontal system will produce some light showers along the coast through 10 am and reach the interior of western Washington between 830 and 11 am. In addition...a weak Puget Sound convergence zone will produce some light rain or drizzle in South Snohomish and north King counties this morning.

×

10-Day Weather Forecast

Almanac

Astronomy

Aug. 29, 2014 Rise Set
Actual Time 6:27 AM PDT 7:56 PM PDT
Civil Twilight 5:55 AM PDT 8:28 PM PDT
Nautical Twilight 5:16 AM PDT 9:06 PM PDT
Astronomical Twilight 4:34 AM PDT 9:48 PM PDT
Moon 10:39 AM PDT 9:38 PM PDT
Length of Visible Light 14h 33m
Length of Day
13h 29m
Tomorrow will be 3m 13s shorter.
Waxing Crescent, 15% of the Moon is Illuminated
Today
Waxing Crescent
Sep 2
First Quarter
Sep 8
Full
Sep 15
Last Quarter
Sep 24
New

Today's Extremes

State Highs State Lows

Community

WunderPhotos

Upload Photos

1,748,270 photos uploaded!

Nearby

Air Quality

  Air Quality AQ Index Pollutant
Yesterday Good
PM2.5
Current Good
PM2.5

Snow Depth

Station Depth Elevation
Mount Crag 0 in 4050 ft
Spirit Lake 0 in 3120 ft
Dungeness 0 in 4100 ft
Sheep Canyon 0 in 4030 ft
Lone Pine 0 in 3800 ft

Earthquake Activity

City Distance Mag. Time & Date
No recent earthquake activity has been reported nearby.
Minimum magnitude displayed is 2.5.

Coastal Water Temperatures

Place Temperature
Port Townsend, WA 53.1 °F
Seattle, WA 55.9 °F
Friday Harbor, WA 53.1 °F
Tacoma, WA 55.0 °F

Nearby Weather Stations